默认 日期 大小 文件数 浏览量 最新下载 xml
to die磁力链接相关资源由用户搜索指令自动获取,结果来源于网络,本站不存储任何资料,亦不承担任何责任,请于24小时内删除,搜索到9431个磁力,显示前4000条数据,用时28ms。
    {"pctnew.url": 117, "descargas2020.url": 124, "Too Old To Die Young - Temporada 1 [HDTV 720p][Cap.105][AC3 5.1 Castellano][www.descargas2020.org].mkv": 3124113975}
创建时间: 2019-06-19 20:52:25 大小:2.91 GB 文件数量:3 热度:6 最近下载:2024-10-25 11:57:01
    {"Too Old to Die Young.s1e1.SF.mp4": 788361319, "Too Old to Die Young.s1e2.SF.mp4": 1323797094, "Too Old to Die Young.s1e3.SF.mp4": 795176240}
创建时间: 2019-06-19 21:48:46 大小:2.71 GB 文件数量:3 热度:5 最近下载:2022-04-14 06:05:38
    ... mkv": 2092308889, "Too Old to Die Young S01E02 (2019) 720p WEBRip ... mkv": 2173170618, "Too Old to Die Young S01E03 (2019) 720p WEBRip ... mkv": 1829655045, "Too Old to Die Young S01E04 (2019) 720p WEBRip ... mkv": 1514785693, "Too Old to Die Young S01E05 (2019) 720p ...
创建时间: 2019-06-20 00:02:44 大小:16.15 GB 文件数量:10 热度:6 最近下载:2024-09-07 08:14:01
    ... Martinez - I'm Not Going to Hurt You.flac": 6799707, "23 ... ": 13040268, "16. Cliff Martinez - Walking to the Girl in the Ground ...
创建时间: 2019-06-20 01:13:21 大小:361.35 MB 文件数量:27 热度:10 最近下载:2024-12-02 06:10:01
    ... tv.avi": 1251281812, "Too.Old.to.Die.Young.s01e02.WEBRip.XViD.Rus ... tv.avi": 1261463212, "Too.Old.to.Die.Young.s01e03.WEBRip.XViD.Rus ... .avi": 1184684136, "Too.Old.to.Die.Young.s01e07.WEBRip.XViD.Rus ... .avi": 1035502100, "Too.Old.to.Die.Young.s01e08.WEBRip.XViD.Rus ...
创建时间: 2019-06-20 01:27:48 大小:9.34 GB 文件数量:10 热度:7 最近下载:2024-04-09 12:12:02
    ... ORG.url": 124, "Too Old To Die Young - Temporada 1 [www. ... part1.rar": 1038090240, "Too Old To Die Young - Temporada 1 [www. ... part2.rar": 1038090240, "Too Old To Die Young - Temporada 1 [www. ... part3.rar": 1038090240, "Too Old To Die Young - Temporada 1 [www. ...
创建时间: 2019-06-20 02:02:56 大小:3.3 GB 文件数量:6 热度:10 最近下载:2024-07-10 00:09:02
    {"Too.Old.to.Die.Young.s01e01.HD1080p.WEBRip.HEVC.Rus.BaibaKo.tv.mkv": 8596087938}
创建时间: 2019-06-20 02:13:37 大小:8.01 GB 文件数量:1 热度:7 最近下载:2024-11-22 22:14:01
    {"Too.Old.to.Die.Young.s01e01.HD1080p.WEBRip.Rus.BaibaKo.tv.mkv": 3212461318}
创建时间: 2019-06-20 03:15:37 大小:2.99 GB 文件数量:1 热度:7 最近下载:2024-10-25 10:23:01
    ... part01.rar": 1038090240, "Too Old To Die Young - Temporada 1 [www. ... part02.rar": 1038090240, "Too Old To Die Young - Temporada 1 [www. ... .rar": 1038090240, "Too Old To Die Young - Temporada 1 [www. ... .rar": 1038090240, "Too Old To Die Young - Temporada 1 [www. ...
创建时间: 2019-06-20 03:38:33 大小:10.31 GB 文件数量:13 热度:6 最近下载:2024-07-11 12:56:02
    ... .mkv": 2756739589, "Too.Old.to.Die.Young.S01E01.The.Devil.720p ... .mkv": 3359218675, "Too.Old.to.Die.Young.S01E04.The.Tower.720p ... JimmyJ.mkv": 2311484490, "Too.Old.to.Die.Young.S01E02.The.Lovers.720p ... .mkv": 3505358202, "Too.Old.to.Die.Young.S01E03.The.Hermit.720p ...
创建时间: 2019-06-20 06:33:05 大小:13.68 GB 文件数量:5 热度:7 最近下载:2024-10-15 09:59:01
    ... ORG.url": 124, "Too Old To Die Young - Temporada 1 [HDTV][ ... ORG].avi": 840039662, "Too Old To Die Young - Temporada 1 [HDTV][ ... ORG].avi": 1048769196, "Too Old To Die Young - Temporada 1 [HDTV][ ... ORG].avi": 829537380, "Too Old To Die Young - Temporada 1 [HDTV][ ...
创建时间: 2019-06-20 10:24:14 大小:2.87 GB 文件数量:6 热度:4 最近下载:2022-04-14 05:44:21
    ... .me.txt": 48, "Too.Old.to.Die.Young.S01E02.PROPER.720p.HEVC ... -MeGusta.mkv": 639375461, "Too.Old.to.Die.Young.S01E02.PROPER.720p.HEVC ...
创建时间: 2019-06-20 10:53:34 大小:620.02 MB 文件数量:6 热度:4 最近下载:2022-04-14 06:06:22
    ... ": 2031053066, "Too.Old.to.Die.Young.S01E02.The.Lovers.1080p ... mkv": 5184988625, "Too.Old.to.Die.Young.S01E09.The.Empress.1080p ... mkv": 4356875438, "Too.Old.to.Die.Young.S01E07.The.Magician.1080p ... mkv": 6073679048, "Too.Old.to.Die.Young.S01E06.The.High.Priestess ...
创建时间: 2019-06-20 15:39:12 大小:48.17 GB 文件数量:10 热度:9 最近下载:2025-04-10 20:19:03
    {"Too.Old.to.Die.Young.S01E01.1080p.TVShows.mkv": 6954295206}
创建时间: 2019-06-20 20:46:54 大小:6.48 GB 文件数量:1 热度:4 最近下载:2022-04-14 05:56:11
    {"T00 0LD T0 D13 Y0UNG ESP T01XE04.mkv": 1199051254, "Elitetorrent - Descargar Torrent sin Limites.url": 129}
创建时间: 2019-06-21 00:32:21 大小:1.12 GB 文件数量:2 热度:4 最近下载:2022-04-14 06:14:19
    ... -1.mp3": 9249036, "01 - Born To Die-1.mp3": 12846796, "04 - Video ... -1.mp3": 9253358, "02 - Off To The Races-1.mp3": 11130768 ...
创建时间: 2019-06-21 01:46:28 大小:140.97 MB 文件数量:16 热度:5 最近下载:2022-04-14 05:48:44
    {"Too.Old.to.Die.Young.1x01.Volume.1.Il.Diavolo.ITA.ENG.1080p.AMZN.WEB-DLMux.H.264-Morpheus.mkv": 6820346608, "Too.Old.to.Die.Young.1x02.Volume.2.Gli.amanti.ITA.ENG.1080p.AMZN.WEB-DLMux.H.264-Morpheus.mkv": 6989975463}
创建时间: 2019-06-21 02:29:11 大小:12.86 GB 文件数量:2 热度:6 最近下载:2024-10-14 15:58:01
    {"Too.Old.to.Die.Young.s01e01.WEBRip.XViD.Rus.BaibaKo.tv.avi": 1251281812}
创建时间: 2019-06-21 02:40:59 大小:1.17 GB 文件数量:1 热度:4 最近下载:2022-04-14 05:55:29
    {"死路A Horrible Way To Die.rar": 113297, "死路A Horrible Way To Die 2011 720.x264.AC3.CnSCG .mkv": 2545326991, "_____padding_file_0_如果您看到此文件,请升级到BitComet(比特彗星)0.85或以上版本____": 91249}
创建时间: 2019-06-21 03:31:18 大小:2.37 GB 文件数量:3 热度:29 最近下载:2025-09-06 00:37:02
    ... .mkv": 884817444, "Too Old to Die Young S01E03 Volume 3 The ... Hermit.mkv": 680022757, "Too Old to Die Young S01E10 Volume 10 The ... .mkv": 615771765, "Too Old to Die Young S01E07 Volume 7 The ... Magician.mkv": 595888756, "Too Old to Die Young S01E08 Volume 8 The ...
创建时间: 2019-06-21 03:35:16 大小:6.61 GB 文件数量:10 热度:8 最近下载:2025-09-12 17:19:19